createdAt,value
2018-10-19T00:00:50.194Z,26.60
2018-10-19T00:03:18.492Z,29.00
2018-10-19T00:05:46.771Z,29.40
2018-10-19T00:08:15.048Z,29.27
2018-10-19T00:10:43.319Z,30.17
2018-10-19T00:13:11.567Z,29.73
2018-10-19T00:15:39.847Z,27.80
2018-10-19T00:20:42.803Z,27.90
2018-10-19T00:23:11.110Z,26.77
2018-10-19T00:25:40.318Z,26.87
2018-10-19T00:28:08.577Z,26.27
2018-10-19T00:30:36.838Z,27.10
2018-10-19T00:33:05.967Z,25.87
2018-10-19T00:35:34.978Z,27.20
2018-10-19T00:38:03.219Z,27.17
2018-10-19T00:40:31.506Z,27.60
2018-10-19T00:42:59.808Z,27.93
2018-10-19T00:45:28.034Z,30.37
2018-10-19T00:47:56.312Z,27.73
2018-10-19T00:50:24.611Z,29.67
2018-10-19T00:52:52.865Z,22.30
2018-10-19T00:55:21.120Z,26.27
2018-10-19T00:57:50.182Z,27.17
2018-10-19T01:00:19.306Z,26.63
2018-10-19T01:02:47.523Z,27.37
2018-10-19T01:05:15.870Z,28.50
2018-10-19T01:07:44.117Z,28.93
2018-10-19T01:10:12.379Z,28.97
2018-10-19T01:12:40.655Z,29.17
2018-10-19T01:15:08.991Z,26.73
2018-10-19T01:17:37.210Z,27.13
2018-10-19T01:20:05.491Z,26.80
2018-10-19T01:22:33.753Z,27.97
2018-10-19T01:25:02.787Z,28.10
2018-10-19T01:27:31.932Z,27.03
2018-10-19T01:30:00.147Z,27.97
2018-10-19T01:32:29.192Z,27.13
2018-10-19T01:34:57.464Z,26.07
2018-10-19T01:37:25.914Z,26.47
2018-10-19T01:39:54.183Z,24.87
2018-10-19T01:42:22.454Z,21.97
2018-10-19T01:44:51.483Z,25.60
2018-10-19T01:47:19.763Z,26.57
2018-10-19T01:49:48.015Z,28.23
2018-10-19T01:52:16.286Z,28.77
2018-10-19T01:54:44.543Z,30.07
2018-10-19T01:57:13.621Z,29.27
2018-10-19T01:59:41.833Z,28.33
2018-10-19T02:02:10.110Z,28.77
2018-10-19T02:04:38.362Z,28.67
2018-10-19T02:07:07.402Z,29.47
2018-10-19T02:09:36.468Z,27.53
2018-10-19T02:12:05.508Z,27.60
2018-10-19T02:14:33.763Z,26.77
2018-10-19T02:17:02.071Z,27.57
2018-10-19T02:19:30.320Z,28.67
2018-10-19T02:21:58.589Z,27.33
2018-10-19T02:24:26.890Z,28.07
2018-10-19T02:26:55.220Z,28.13
2018-10-19T02:29:23.418Z,26.43
2018-10-19T02:31:51.695Z,28.07
2018-10-19T02:34:20.744Z,28.00
2018-10-19T02:36:49.755Z,26.67
2018-10-19T02:39:18.115Z,26.47
2018-10-19T02:41:46.295Z,26.53
2018-10-19T02:44:14.583Z,27.00
2018-10-19T02:46:42.872Z,27.03
2018-10-19T02:49:11.134Z,25.90
2018-10-19T02:51:39.398Z,26.17
2018-10-19T02:54:08.668Z,26.37
2018-10-19T02:56:37.754Z,25.67
2018-10-19T02:59:06.057Z,26.23
2018-10-19T03:01:34.300Z,26.53
2018-10-19T03:04:02.575Z,22.63
2018-10-19T03:06:30.827Z,23.43
2018-10-19T03:08:59.105Z,21.20
2018-10-19T03:11:28.195Z,22.87
2018-10-19T03:13:56.466Z,24.87
2018-10-19T03:16:24.743Z,23.30
2018-10-19T03:18:53.003Z,21.93
2018-10-19T03:21:21.283Z,23.40
2018-10-19T03:23:49.589Z,22.30
2018-10-19T03:26:17.848Z,22.73
2018-10-19T03:28:46.107Z,23.40
2018-10-19T03:31:14.436Z,24.30
2018-10-19T03:33:42.671Z,24.57
2018-10-19T03:36:10.927Z,24.10
2018-10-19T03:38:39.207Z,25.77
2018-10-19T03:41:07.505Z,26.37
2018-10-19T03:43:35.746Z,25.80
2018-10-19T03:46:04.011Z,24.67
2018-10-19T03:48:32.298Z,23.87
2018-10-19T03:51:00.605Z,20.70
2018-10-19T03:53:29.991Z,23.07
2018-10-19T03:55:58.279Z,20.40
2018-10-19T03:58:26.547Z,22.23
2018-10-19T04:00:54.827Z,22.47
2018-10-19T04:03:23.129Z,24.80
2018-10-19T04:05:51.382Z,24.90
2018-10-19T04:08:19.650Z,23.73
2018-10-19T04:10:47.910Z,26.50
2018-10-19T04:13:16.182Z,24.90
2018-10-19T04:15:44.518Z,24.10
2018-10-19T04:18:12.759Z,23.07
2018-10-19T04:20:41.787Z,25.97
2018-10-19T04:23:10.878Z,25.87
2018-10-19T04:25:39.071Z,25.03
2018-10-19T04:28:07.346Z,24.73
2018-10-19T04:30:35.914Z,25.40
2018-10-19T04:33:05.094Z,23.47
2018-10-19T04:35:34.020Z,25.63
2018-10-19T04:38:02.277Z,24.83
2018-10-19T04:40:31.400Z,27.40
2018-10-19T04:43:00.428Z,27.07
2018-10-19T04:45:28.692Z,26.73
2018-10-19T04:47:56.972Z,26.00
2018-10-19T04:50:25.222Z,24.90
2018-10-19T04:52:53.575Z,25.17
2018-10-19T04:55:21.759Z,24.77
2018-10-19T04:57:50.007Z,26.07
2018-10-19T05:00:19.043Z,24.40
2018-10-19T05:02:47.405Z,25.67
2018-10-19T05:05:15.698Z,25.40
2018-10-19T05:07:43.847Z,23.93
2018-10-19T05:10:12.106Z,27.43
2018-10-19T05:12:41.251Z,25.07
2018-10-19T05:15:09.437Z,24.83
2018-10-19T05:17:37.714Z,24.57
2018-10-19T05:20:05.988Z,24.33
2018-10-19T05:22:34.271Z,24.53
2018-10-19T05:25:02.522Z,25.93
2018-10-19T05:27:30.803Z,25.30
2018-10-19T05:29:59.085Z,26.63
2018-10-19T05:32:27.332Z,23.37
2018-10-19T05:34:55.607Z,21.37
2018-10-19T05:37:24.319Z,23.53
2018-10-19T05:39:53.355Z,23.17
2018-10-19T05:42:21.664Z,23.57
2018-10-19T05:44:51.439Z,24.60
2018-10-19T05:47:19.987Z,24.77
2018-10-19T05:49:48.242Z,23.83
2018-10-19T05:52:16.667Z,23.43
2018-10-19T05:54:44.806Z,23.53
2018-10-19T05:57:13.086Z,22.37
2018-10-19T05:59:41.347Z,24.70
2018-10-19T06:02:09.643Z,26.10
2018-10-19T06:04:37.870Z,26.37
2018-10-19T06:07:06.189Z,26.33
2018-10-19T06:09:34.575Z,25.50
2018-10-19T06:12:02.871Z,23.87
2018-10-19T06:14:31.931Z,24.53
2018-10-19T06:17:00.212Z,23.77
2018-10-19T06:19:28.476Z,22.97
2018-10-19T06:21:56.757Z,24.43
2018-10-19T06:24:25.036Z,25.17
2018-10-19T06:26:53.308Z,25.03
2018-10-19T06:29:21.590Z,25.97
2018-10-19T06:31:49.839Z,25.50
2018-10-19T06:34:18.118Z,26.23
2018-10-19T06:36:46.371Z,25.93
2018-10-19T06:39:14.627Z,26.30
2018-10-19T06:41:43.670Z,28.93
2018-10-19T06:44:11.972Z,26.17
2018-10-19T06:46:40.295Z,29.07
2018-10-19T06:49:08.525Z,28.23
2018-10-19T06:51:36.739Z,29.03
2018-10-19T06:54:05.018Z,29.43
2018-10-19T06:56:33.258Z,29.27
2018-10-19T06:59:01.671Z,29.73
2018-10-19T07:01:29.835Z,28.63
2018-10-19T07:03:58.113Z,28.27
2018-10-19T07:06:26.379Z,29.00
2018-10-19T07:08:55.426Z,30.57
2018-10-19T07:11:23.691Z,29.60
2018-10-19T07:13:51.990Z,30.70
2018-10-19T07:16:20.259Z,30.47
2018-10-19T07:18:48.560Z,31.47
2018-10-19T07:21:16.842Z,31.87
2018-10-19T07:23:45.863Z,30.97
2018-10-19T07:26:14.182Z,32.37
2018-10-19T07:28:42.399Z,33.27
2018-10-19T07:31:11.530Z,33.27
2018-10-19T07:33:40.578Z,38.50
2018-10-19T07:36:09.652Z,39.03
2018-10-19T07:38:37.939Z,32.37
2018-10-19T07:41:07.757Z,28.83
2018-10-19T07:43:36.002Z,29.40
2018-10-19T07:46:04.266Z,30.33
2018-10-19T07:48:32.639Z,30.67
2018-10-19T07:51:00.823Z,30.77
2018-10-19T07:53:29.081Z,30.10
2018-10-19T07:55:57.414Z,31.73
2018-10-19T07:58:26.366Z,30.63
2018-10-19T08:00:54.645Z,32.07
2018-10-19T08:03:22.937Z,30.07
2018-10-19T08:05:51.190Z,29.53
2018-10-19T08:08:19.512Z,31.43
2018-10-19T08:10:47.798Z,31.60
2018-10-19T08:13:16.078Z,32.17
2018-10-19T08:15:44.331Z,31.10
2018-10-19T08:18:13.648Z,31.77
2018-10-19T08:20:41.916Z,31.63
2018-10-19T08:23:10.956Z,32.47
2018-10-19T08:25:39.203Z,32.87
2018-10-19T08:28:07.471Z,34.03
2018-10-19T08:30:35.730Z,35.20
2018-10-19T08:33:04.018Z,34.27
2018-10-19T08:35:32.344Z,33.37
2018-10-19T08:38:00.697Z,36.10
2018-10-19T08:40:29.020Z,35.20
2018-10-19T08:42:58.080Z,35.00
2018-10-19T08:45:26.308Z,34.50
2018-10-19T08:47:54.587Z,35.67
2018-10-19T08:50:22.883Z,36.67
2018-10-19T08:52:51.136Z,36.07
2018-10-19T08:55:19.418Z,35.60
2018-10-19T08:57:47.748Z,37.50
2018-10-19T09:00:16.418Z,35.47
2018-10-19T09:02:45.402Z,35.47
2018-10-19T09:05:13.740Z,36.07
2018-10-19T09:07:41.957Z,36.27
2018-10-19T09:10:10.217Z,36.70
2018-10-19T09:12:38.750Z,34.87
2018-10-19T09:15:07.008Z,34.67
2018-10-19T09:17:35.204Z,36.37
2018-10-19T09:20:03.566Z,38.03
2018-10-19T09:22:31.818Z,36.43
2018-10-19T09:25:00.087Z,34.60
2018-10-19T09:27:28.357Z,36.03
2018-10-19T09:29:56.630Z,35.83
2018-10-19T09:32:24.904Z,36.00
2018-10-19T09:34:53.393Z,37.30
2018-10-19T09:37:21.637Z,36.83
2018-10-19T09:39:49.895Z,36.33
2018-10-19T09:42:18.490Z,36.23
2018-10-19T09:44:46.748Z,35.67
2018-10-19T09:47:15.062Z,35.67
2018-10-19T09:49:43.341Z,37.03
2018-10-19T09:52:11.594Z,35.23
2018-10-19T09:54:39.859Z,37.60
2018-10-19T09:57:08.145Z,36.53
2018-10-19T09:59:36.436Z,38.10
2018-10-19T10:02:04.730Z,33.93
2018-10-19T10:04:33.216Z,35.40
2018-10-19T10:07:01.534Z,38.27
2018-10-19T10:09:29.738Z,38.23
2018-10-19T10:11:58.047Z,37.93
2018-10-19T10:14:26.439Z,38.30
2018-10-19T10:16:54.716Z,36.37
2018-10-19T10:19:22.962Z,37.30
2018-10-19T10:21:51.227Z,34.83
2018-10-19T10:24:19.485Z,36.03
2018-10-19T10:26:47.756Z,36.43
2018-10-19T10:29:16.029Z,35.13
2018-10-19T10:31:44.313Z,34.83
2018-10-19T10:34:12.600Z,33.97
2018-10-19T10:36:40.835Z,38.13
2018-10-19T10:39:09.231Z,35.37
2018-10-19T10:41:38.172Z,35.93
2018-10-19T10:44:06.447Z,36.63
2018-10-19T10:46:34.767Z,35.90
2018-10-19T10:49:03.064Z,32.80
2018-10-19T10:51:32.063Z,36.33
2018-10-19T10:54:01.095Z,34.57
2018-10-19T10:56:30.115Z,34.00
2018-10-19T10:58:58.423Z,36.17
2018-10-19T11:01:26.742Z,35.10
2018-10-19T11:03:55.007Z,34.23
2018-10-19T11:06:23.268Z,34.57
2018-10-19T11:08:51.537Z,33.17
2018-10-19T11:11:19.798Z,34.20
2018-10-19T11:13:48.100Z,33.10
2018-10-19T11:16:16.355Z,32.60
2018-10-19T11:18:44.628Z,32.17
2018-10-19T11:21:12.898Z,32.33
2018-10-19T11:23:41.153Z,32.97
2018-10-19T11:26:09.437Z,31.23
2018-10-19T11:28:37.699Z,30.60
2018-10-19T11:31:06.058Z,31.37
2018-10-19T11:33:34.322Z,30.07
2018-10-19T11:36:03.361Z,30.70
2018-10-19T11:38:31.624Z,31.03
2018-10-19T11:40:59.895Z,30.90
2018-10-19T11:43:28.151Z,29.83
2018-10-19T11:45:57.238Z,30.00
2018-10-19T11:48:25.476Z,28.93
2018-10-19T11:50:53.781Z,30.13
2018-10-19T11:53:22.034Z,28.97
2018-10-19T11:55:50.322Z,31.13
2018-10-19T11:58:18.716Z,29.30
2018-10-19T12:00:46.897Z,29.07
2018-10-19T12:03:15.983Z,30.07
2018-10-19T12:05:44.240Z,29.07
2018-10-19T12:08:12.508Z,29.00
2018-10-19T12:10:41.686Z,28.47
2018-10-19T12:13:09.937Z,29.23
2018-10-19T12:15:38.181Z,30.40
2018-10-19T12:18:07.302Z,27.10
2018-10-19T12:20:35.580Z,27.33
2018-10-19T12:23:04.602Z,29.17
2018-10-19T12:25:32.877Z,27.23
2018-10-19T12:28:01.153Z,28.77
2018-10-19T12:30:29.423Z,27.37
2018-10-19T12:32:57.762Z,28.60
2018-10-19T12:35:26.093Z,29.27
2018-10-19T12:40:29.065Z,29.10
2018-10-19T12:42:57.381Z,32.53
2018-10-19T12:45:25.601Z,28.63
2018-10-19T12:47:53.901Z,27.20
2018-10-19T12:50:22.158Z,29.93
2018-10-19T12:52:50.483Z,31.47
2018-10-19T12:55:18.830Z,30.00
2018-10-19T12:57:47.008Z,28.50
2018-10-19T13:00:15.275Z,28.47
2018-10-19T13:02:43.827Z,29.97
2018-10-19T13:05:12.102Z,26.40
2018-10-19T13:07:40.366Z,27.63
2018-10-19T13:10:08.642Z,29.13
2018-10-19T13:12:36.899Z,27.20
2018-10-19T13:15:05.988Z,26.60
2018-10-19T13:17:34.230Z,29.93
2018-10-19T13:20:03.737Z,30.83
2018-10-19T13:22:32.009Z,27.13
2018-10-19T13:25:00.280Z,30.40
2018-10-19T13:27:28.765Z,27.50
2018-10-19T13:29:57.035Z,29.47
2018-10-19T13:32:25.284Z,29.70
2018-10-19T13:34:53.588Z,29.47
2018-10-19T13:37:22.383Z,29.67
2018-10-19T13:39:50.654Z,28.70
2018-10-19T13:42:20.174Z,30.77
2018-10-19T13:44:49.350Z,29.20
2018-10-19T13:47:17.622Z,27.77
2018-10-19T13:49:45.864Z,29.50
2018-10-19T13:52:14.206Z,27.73
2018-10-19T13:54:42.417Z,28.23
2018-10-19T13:57:10.764Z,27.53
2018-10-19T13:59:39.031Z,29.13
2018-10-19T14:02:07.320Z,29.30
2018-10-19T14:04:35.584Z,28.23
2018-10-19T14:07:04.134Z,26.67
2018-10-19T14:09:32.419Z,29.13
2018-10-19T14:12:00.687Z,28.50
2018-10-19T14:14:28.970Z,26.60
2018-10-19T14:16:58.764Z,27.57
2018-10-19T14:19:27.025Z,28.57
2018-10-19T14:21:55.287Z,28.37
2018-10-19T14:24:23.726Z,27.47
2018-10-19T14:26:52.036Z,28.23
2018-10-19T14:29:20.271Z,27.53
2018-10-19T14:31:48.558Z,27.37
2018-10-19T14:34:16.851Z,26.93
2018-10-19T14:36:45.947Z,29.40
2018-10-19T14:39:15.091Z,27.97
2018-10-19T14:41:43.280Z,27.23
2018-10-19T14:44:11.550Z,26.63
2018-10-19T14:46:39.827Z,28.43
2018-10-19T14:49:08.732Z,29.03
2018-10-19T14:51:37.843Z,27.83
2018-10-19T14:54:06.123Z,26.87
2018-10-19T14:56:34.389Z,25.33
2018-10-19T14:59:03.462Z,25.43
2018-10-19T15:01:31.697Z,26.33
2018-10-19T15:03:59.957Z,24.70
2018-10-19T15:06:28.247Z,27.10
2018-10-19T15:08:56.565Z,26.73
2018-10-19T15:11:25.047Z,27.57
2018-10-19T15:13:53.110Z,26.40
2018-10-19T15:16:21.340Z,27.57
2018-10-19T15:18:49.934Z,25.53
2018-10-19T15:21:18.198Z,26.67
2018-10-19T15:23:46.462Z,25.87
2018-10-19T15:26:14.745Z,25.30
2018-10-19T15:28:43.063Z,25.77
2018-10-19T15:33:45.822Z,24.93
2018-10-19T15:36:14.129Z,26.43
2018-10-19T15:38:42.382Z,25.87
2018-10-19T15:41:10.662Z,25.60
2018-10-19T15:43:38.989Z,26.57
2018-10-19T15:46:07.219Z,24.47
2018-10-19T15:48:36.280Z,23.97
2018-10-19T15:51:04.571Z,24.73
2018-10-19T15:53:32.845Z,22.93
2018-10-19T15:56:01.099Z,24.50
2018-10-19T15:58:30.130Z,22.90
2018-10-19T16:00:58.398Z,22.53
2018-10-19T16:03:26.687Z,22.80
2018-10-19T16:05:54.998Z,23.43
2018-10-19T16:08:23.253Z,22.77
2018-10-19T16:10:51.546Z,21.80
2018-10-19T16:13:19.804Z,23.83
2018-10-19T16:15:48.355Z,21.97
2018-10-19T16:18:16.659Z,21.67
2018-10-19T16:20:44.890Z,20.83
2018-10-19T16:23:13.186Z,20.23
2018-10-19T16:25:41.458Z,19.40
2018-10-19T16:28:09.765Z,20.17
2018-10-19T16:30:38.857Z,20.07
2018-10-19T16:33:07.937Z,20.70
2018-10-19T16:35:36.172Z,20.20
2018-10-19T16:38:04.459Z,20.23
2018-10-19T16:40:32.748Z,19.70
2018-10-19T16:43:01.028Z,22.63
2018-10-19T16:45:29.320Z,20.70
2018-10-19T16:47:57.623Z,21.83
2018-10-19T16:50:25.909Z,21.03
2018-10-19T16:52:55.000Z,21.03
2018-10-19T16:55:23.278Z,22.13
2018-10-19T16:57:52.402Z,20.67
2018-10-19T17:00:20.667Z,22.47
2018-10-19T17:02:49.762Z,22.30
2018-10-19T17:05:18.845Z,22.07
2018-10-19T17:07:47.086Z,21.80
2018-10-19T17:10:15.579Z,21.27
2018-10-19T17:12:43.957Z,23.13
2018-10-19T17:15:12.289Z,20.20
2018-10-19T17:17:40.638Z,21.67
2018-10-19T17:20:09.668Z,22.30
2018-10-19T17:22:37.959Z,22.27
2018-10-19T17:25:06.291Z,23.40
2018-10-19T17:27:34.522Z,23.30
2018-10-19T17:30:02.967Z,23.27
2018-10-19T17:32:31.199Z,24.47
2018-10-19T17:35:00.245Z,23.50
2018-10-19T17:37:28.591Z,23.87
2018-10-19T17:39:56.821Z,24.73
2018-10-19T17:42:25.115Z,23.70
2018-10-19T17:44:54.195Z,23.73
2018-10-19T17:47:22.509Z,24.27
2018-10-19T17:49:50.867Z,24.23
2018-10-19T17:52:19.923Z,24.37
2018-10-19T17:54:48.207Z,20.80
2018-10-19T17:57:16.559Z,23.00
2018-10-19T17:59:45.655Z,23.50
2018-10-19T18:02:13.950Z,25.60
2018-10-19T18:04:42.270Z,24.33
2018-10-19T18:07:11.326Z,23.07
2018-10-19T18:09:39.811Z,25.43
2018-10-19T18:12:08.786Z,23.67
2018-10-19T18:14:37.116Z,24.57
2018-10-19T18:17:05.432Z,24.30
2018-10-19T18:19:33.811Z,24.07
2018-10-19T18:22:02.230Z,24.13
2018-10-19T18:24:30.359Z,24.03
2018-10-19T18:26:58.773Z,24.53
2018-10-19T18:29:27.038Z,24.30
2018-10-19T18:31:55.436Z,24.20
2018-10-19T18:34:23.820Z,24.40
2018-10-19T18:36:52.863Z,24.77
2018-10-19T18:39:21.174Z,23.77
2018-10-19T18:41:49.463Z,25.47
2018-10-19T18:44:18.612Z,25.57
2018-10-19T18:46:46.951Z,24.20
2018-10-19T18:49:16.110Z,25.47
2018-10-19T18:51:44.396Z,24.87
2018-10-19T18:54:13.429Z,24.10
2018-10-19T18:56:41.870Z,25.37
2018-10-19T18:59:10.359Z,25.43
2018-10-19T19:01:38.585Z,24.90
2018-10-19T19:04:06.910Z,25.37
2018-10-19T19:06:36.292Z,25.70
2018-10-19T19:09:04.845Z,24.70
2018-10-19T19:11:33.130Z,25.97
2018-10-19T19:14:01.435Z,26.20
2018-10-19T19:16:29.754Z,24.73
2018-10-19T19:18:58.102Z,25.20
2018-10-19T19:21:27.224Z,25.67
2018-10-19T19:23:56.632Z,24.93
2018-10-19T19:26:25.262Z,24.20
2018-10-19T19:28:55.171Z,21.73
2018-10-19T19:31:23.496Z,24.97
2018-10-19T19:36:47.731Z,27.27
2018-10-19T19:39:16.106Z,23.73
2018-10-19T19:42:02.144Z,24.17
2018-10-19T19:44:31.387Z,24.10
2018-10-19T19:46:59.751Z,22.17
2018-10-19T19:49:33.812Z,23.73
2018-10-19T19:52:02.768Z,22.80
2018-10-19T19:54:31.025Z,24.17
2018-10-19T19:56:59.269Z,21.90
2018-10-19T19:59:27.597Z,19.77
2018-10-19T20:01:55.917Z,18.87
2018-10-19T20:04:24.164Z,21.87
2018-10-19T20:06:52.410Z,22.10
2018-10-19T20:09:20.690Z,20.50
2018-10-19T20:11:48.991Z,22.20
2018-10-19T20:14:17.299Z,23.20
2018-10-19T20:16:45.566Z,22.23
2018-10-19T20:19:14.618Z,23.03
2018-10-19T20:21:42.890Z,22.87
2018-10-19T20:24:11.156Z,20.77
2018-10-19T20:26:39.450Z,23.30
2018-10-19T20:29:07.740Z,22.33
2018-10-19T20:31:36.001Z,20.40
2018-10-19T20:34:04.291Z,19.70
2018-10-19T20:36:32.577Z,20.20
2018-10-19T20:39:00.836Z,23.30
2018-10-19T20:44:03.797Z,20.37
2018-10-19T20:46:32.059Z,24.80
2018-10-19T20:49:00.653Z,24.77
2018-10-19T20:51:29.674Z,23.57
2018-10-19T20:53:57.932Z,26.47
2018-10-19T20:56:26.216Z,24.90
2018-10-19T20:58:54.494Z,23.17
2018-10-19T21:01:22.762Z,23.97
2018-10-19T21:03:51.028Z,25.33
2018-10-19T21:06:19.319Z,25.00
2018-10-19T21:08:47.595Z,26.93
2018-10-19T21:11:15.903Z,23.23
2018-10-19T21:13:44.124Z,22.90
2018-10-19T21:16:12.431Z,24.27
2018-10-19T21:18:40.771Z,26.23
2018-10-19T21:21:09.212Z,25.83
2018-10-19T21:23:37.567Z,23.57
2018-10-19T21:26:05.848Z,24.40
2018-10-19T21:28:34.194Z,27.63
2018-10-19T21:31:02.459Z,27.07
2018-10-19T21:33:30.895Z,27.73
2018-10-19T21:35:59.163Z,31.50
2018-10-19T21:38:28.249Z,28.23
2018-10-19T21:40:56.594Z,27.77
2018-10-19T21:43:24.868Z,32.17
2018-10-19T21:45:53.131Z,30.03
2018-10-19T21:48:21.468Z,25.20
2018-10-19T21:50:49.755Z,26.70
2018-10-19T21:53:18.803Z,26.50
2018-10-19T21:55:47.074Z,27.37
2018-10-19T21:58:15.382Z,29.10
2018-10-19T22:00:43.643Z,26.70
2018-10-19T22:03:11.923Z,25.77
2018-10-19T22:05:40.192Z,23.97
2018-10-19T22:08:08.479Z,25.80
2018-10-19T22:10:36.769Z,24.63
2018-10-19T22:13:05.860Z,24.60
2018-10-19T22:15:34.078Z,21.17
2018-10-19T22:18:02.378Z,24.53
2018-10-19T22:20:30.630Z,20.83
2018-10-19T22:22:58.992Z,22.53
2018-10-19T22:25:27.252Z,25.40
2018-10-19T22:27:55.510Z,25.53
2018-10-19T22:30:24.549Z,26.67
2018-10-19T22:32:52.819Z,24.87
2018-10-19T22:35:21.106Z,26.60
2018-10-19T22:37:49.396Z,26.33
2018-10-19T22:40:18.520Z,26.63
2018-10-19T22:42:47.584Z,26.37
2018-10-19T22:45:15.864Z,27.13
2018-10-19T22:47:44.132Z,27.10
2018-10-19T22:50:12.427Z,27.90
2018-10-19T22:52:40.713Z,27.00
2018-10-19T22:55:09.004Z,28.27
2018-10-19T22:57:37.220Z,27.23
2018-10-19T23:00:06.310Z,26.30
2018-10-19T23:02:34.580Z,24.80
2018-10-19T23:05:02.851Z,26.63
2018-10-19T23:07:31.104Z,25.10
2018-10-19T23:10:00.134Z,23.80
2018-10-19T23:12:28.396Z,26.93
2018-10-19T23:14:56.862Z,28.80
2018-10-19T23:17:25.129Z,27.63
2018-10-19T23:19:53.384Z,25.53
2018-10-19T23:22:22.430Z,25.57
2018-10-19T23:24:50.712Z,19.17
2018-10-19T23:27:18.979Z,17.63
2018-10-19T23:29:47.246Z,19.47
2018-10-19T23:32:15.608Z,20.63
2018-10-19T23:34:44.617Z,19.87
2018-10-19T23:37:12.964Z,22.47
2018-10-19T23:39:41.202Z,15.47
2018-10-19T23:42:09.500Z,16.20
2018-10-19T23:44:38.546Z,13.23
2018-10-19T23:47:06.871Z,19.73
2018-10-19T23:49:35.093Z,17.07
2018-10-19T23:52:03.351Z,19.07
2018-10-19T23:54:31.621Z,17.37
2018-10-19T23:56:59.870Z,16.70
2018-10-19T23:59:28.922Z,15.10
